createdAt,value
2024-04-30T00:01:58.013Z,52.15
2024-04-30T00:04:26.226Z,52.30
2024-04-30T00:06:55.078Z,52.14
2024-04-30T00:09:22.641Z,52.40
2024-04-30T00:11:50.267Z,52.62
2024-04-30T00:14:17.837Z,52.82
2024-04-30T00:16:45.508Z,52.88
2024-04-30T00:19:13.253Z,53.00
2024-04-30T00:21:42.905Z,53.21
2024-04-30T00:24:10.892Z,52.92
2024-04-30T00:26:38.665Z,53.38
2024-04-30T00:29:06.196Z,53.72
2024-04-30T00:31:33.799Z,54.23
2024-04-30T00:34:01.521Z,54.96
2024-04-30T00:36:29.141Z,55.57
2024-04-30T00:38:56.792Z,55.50
2024-04-30T00:41:24.370Z,55.61
2024-04-30T00:43:51.927Z,56.14
2024-04-30T00:46:19.639Z,56.11
2024-04-30T00:48:47.199Z,55.93
2024-04-30T00:51:14.832Z,55.29
2024-04-30T00:53:42.788Z,55.45
2024-04-30T00:56:10.438Z,55.00
2024-04-30T00:58:38.115Z,55.06
2024-04-30T01:01:05.971Z,55.00
2024-04-30T01:03:33.991Z,55.43
2024-04-30T01:06:02.358Z,56.14
2024-04-30T01:08:29.852Z,56.56
2024-04-30T01:10:57.406Z,57.08
2024-04-30T01:13:28.398Z,57.29
2024-04-30T01:15:56.065Z,57.47
2024-04-30T01:18:23.701Z,57.57
2024-04-30T01:20:51.272Z,56.93
2024-04-30T01:23:18.880Z,57.20
2024-04-30T01:25:46.591Z,57.15
2024-04-30T01:28:14.369Z,57.04
2024-04-30T01:33:29.722Z,57.56
2024-04-30T01:35:58.171Z,57.55
2024-04-30T01:38:26.269Z,57.52
2024-04-30T01:40:53.912Z,57.54
2024-04-30T01:43:21.622Z,58.26
2024-04-30T01:45:49.302Z,58.65
2024-04-30T01:48:17.007Z,58.59
2024-04-30T01:50:44.641Z,58.61
2024-04-30T01:53:12.207Z,58.82
2024-04-30T01:55:39.772Z,58.91
2024-04-30T01:58:07.355Z,58.80
2024-04-30T02:00:35.190Z,59.13
2024-04-30T02:03:02.973Z,59.32
2024-04-30T02:05:30.613Z,59.19
2024-04-30T02:07:59.594Z,59.31
2024-04-30T02:10:27.351Z,59.48
2024-04-30T02:12:55.023Z,59.13
2024-04-30T02:15:23.014Z,59.11
2024-04-30T02:17:50.739Z,59.32
2024-04-30T02:20:18.386Z,59.53
2024-04-30T02:22:45.914Z,59.61
2024-04-30T02:25:13.503Z,59.51
2024-04-30T02:27:41.944Z,60.04
2024-04-30T02:30:17.771Z,59.94
2024-04-30T02:33:04.484Z,59.88
2024-04-30T02:35:32.397Z,59.54
2024-04-30T02:37:59.967Z,59.93
2024-04-30T02:40:27.498Z,60.08
2024-04-30T02:42:55.223Z,59.81
2024-04-30T02:45:23.145Z,59.85
2024-04-30T02:47:50.707Z,59.92
2024-04-30T02:50:18.280Z,60.05
2024-04-30T02:52:45.848Z,59.89
2024-04-30T02:55:13.619Z,59.87
2024-04-30T02:57:41.163Z,59.82
2024-04-30T03:00:09.042Z,60.02
2024-04-30T03:02:36.702Z,60.08
2024-04-30T03:05:04.751Z,59.81
2024-04-30T03:07:32.437Z,59.56
2024-04-30T03:10:00.747Z,59.80
2024-04-30T03:12:28.485Z,59.91
2024-04-30T03:14:56.041Z,60.00
2024-04-30T03:17:23.667Z,60.11
2024-04-30T03:19:51.515Z,60.26
2024-04-30T03:22:19.376Z,60.55
2024-04-30T03:24:46.960Z,60.61
2024-04-30T03:27:14.548Z,60.73
2024-04-30T03:29:42.504Z,60.83
2024-04-30T03:32:09.959Z,60.85
2024-04-30T03:34:38.600Z,60.93
2024-04-30T03:37:06.379Z,60.92
2024-04-30T03:39:33.906Z,61.63
2024-04-30T03:42:01.658Z,61.68
2024-04-30T03:44:29.171Z,61.44
2024-04-30T03:46:56.853Z,61.82
2024-04-30T03:49:24.435Z,61.63
2024-04-30T03:51:52.168Z,61.00
2024-04-30T03:54:19.756Z,61.86
2024-04-30T03:56:47.304Z,62.24
2024-04-30T03:59:17.170Z,65.21
2024-04-30T04:01:44.713Z,68.20
2024-04-30T04:04:12.352Z,64.02
2024-04-30T04:06:40.013Z,60.37
2024-04-30T04:09:07.655Z,55.62
2024-04-30T04:11:54.331Z,54.44
2024-04-30T04:14:41.663Z,54.98
2024-04-30T04:17:10.597Z,55.29
2024-04-30T04:19:38.918Z,56.55
2024-04-30T04:22:07.043Z,56.79
2024-04-30T04:24:34.899Z,57.33
2024-04-30T04:27:02.814Z,57.57
2024-04-30T04:29:30.773Z,57.73
2024-04-30T04:32:00.988Z,57.99
2024-04-30T04:34:29.080Z,58.21
2024-04-30T04:36:56.723Z,58.16
2024-04-30T04:39:24.383Z,58.73
2024-04-30T04:41:52.056Z,59.32
2024-04-30T04:44:19.611Z,59.31
2024-04-30T04:46:47.237Z,59.05
2024-04-30T04:49:14.734Z,59.28
2024-04-30T04:51:42.344Z,59.23
2024-04-30T04:54:09.936Z,59.64
2024-04-30T04:56:37.637Z,59.58
2024-04-30T04:59:05.252Z,60.03
2024-04-30T05:01:32.944Z,60.00
2024-04-30T05:04:01.079Z,59.69
2024-04-30T05:06:28.862Z,59.46
2024-04-30T05:08:56.396Z,59.47
2024-04-30T05:11:24.387Z,59.64
2024-04-30T05:13:52.353Z,59.72
2024-04-30T05:16:20.068Z,59.60
2024-04-30T05:18:47.682Z,59.54
2024-04-30T05:21:15.217Z,59.36
2024-04-30T05:23:42.788Z,59.22
2024-04-30T05:26:10.352Z,59.43
2024-04-30T05:28:38.649Z,59.41
2024-04-30T05:31:06.472Z,59.40
2024-04-30T05:33:34.232Z,59.52
2024-04-30T05:36:02.186Z,59.38
2024-04-30T05:38:29.833Z,59.24
2024-04-30T05:40:57.420Z,59.03
2024-04-30T05:43:25.171Z,58.66
2024-04-30T05:45:52.879Z,58.74
2024-04-30T05:48:20.429Z,58.66
2024-04-30T05:50:48.088Z,58.31
2024-04-30T05:53:15.911Z,58.43
2024-04-30T05:55:43.663Z,58.54
2024-04-30T05:58:13.656Z,57.82
2024-04-30T06:00:41.440Z,57.69
2024-04-30T06:03:09.193Z,57.68
2024-04-30T06:05:36.993Z,57.36
2024-04-30T06:08:04.925Z,57.12
2024-04-30T06:10:32.506Z,57.01
2024-04-30T06:13:00.082Z,56.79
2024-04-30T06:15:28.020Z,56.65
2024-04-30T06:17:57.166Z,56.48
2024-04-30T06:20:24.965Z,56.37
2024-04-30T06:22:52.744Z,56.03
2024-04-30T06:25:20.359Z,55.91
2024-04-30T06:27:48.867Z,55.85
2024-04-30T06:30:16.471Z,56.02
2024-04-30T06:32:44.212Z,56.05
2024-04-30T06:35:11.996Z,55.55
2024-04-30T06:37:39.684Z,55.13
2024-04-30T06:40:07.765Z,54.97
2024-04-30T06:42:35.370Z,54.96
2024-04-30T06:45:03.281Z,54.99
2024-04-30T06:47:31.054Z,54.74
2024-04-30T06:49:58.939Z,54.40
2024-04-30T06:52:26.666Z,54.05
2024-04-30T06:54:54.384Z,53.80
2024-04-30T06:57:22.030Z,53.40
2024-04-30T06:59:49.786Z,53.31
2024-04-30T07:02:20.273Z,53.03
2024-04-30T07:04:47.958Z,52.98
2024-04-30T07:07:15.716Z,52.63
2024-04-30T07:09:43.302Z,51.79
2024-04-30T07:12:12.510Z,51.22
2024-04-30T07:14:40.574Z,51.57
2024-04-30T07:17:09.305Z,51.61
2024-04-30T07:19:37.606Z,51.39
2024-04-30T07:22:05.598Z,51.21
2024-04-30T07:24:33.199Z,50.95
2024-04-30T07:27:00.789Z,50.50
2024-04-30T07:30:19.611Z,50.57
2024-04-30T07:33:06.180Z,50.26
2024-04-30T07:35:33.968Z,49.76
2024-04-30T07:38:01.626Z,49.33
2024-04-30T07:40:29.358Z,49.07
2024-04-30T07:42:56.989Z,49.09
2024-04-30T07:45:24.647Z,48.45
2024-04-30T07:47:52.334Z,48.06
2024-04-30T07:50:20.279Z,47.95
2024-04-30T07:52:47.885Z,47.83
2024-04-30T07:55:15.452Z,47.62
2024-04-30T07:57:43.144Z,47.28
2024-04-30T08:00:12.006Z,46.81
2024-04-30T08:02:39.769Z,46.79
2024-04-30T08:05:07.401Z,45.77
2024-04-30T08:07:34.999Z,45.70
2024-04-30T08:10:04.678Z,45.59
2024-04-30T08:12:32.530Z,45.00
2024-04-30T08:15:01.092Z,44.95
2024-04-30T08:17:30.214Z,44.97
2024-04-30T08:19:57.777Z,45.34
2024-04-30T08:22:26.044Z,44.58
2024-04-30T08:24:53.550Z,44.26
2024-04-30T08:27:23.783Z,43.77
2024-04-30T08:29:53.092Z,43.68
2024-04-30T08:32:21.208Z,42.72
2024-04-30T08:34:48.685Z,42.94
2024-04-30T08:37:16.244Z,42.63
2024-04-30T08:39:43.777Z,42.59
2024-04-30T08:42:11.355Z,42.63
2024-04-30T08:44:38.940Z,41.34
2024-04-30T08:47:06.598Z,40.37
2024-04-30T08:49:42.865Z,40.39
2024-04-30T08:52:16.221Z,39.74
2024-04-30T08:54:43.930Z,40.19
2024-04-30T08:57:11.720Z,39.38
2024-04-30T08:59:39.259Z,39.12
2024-04-30T09:02:06.993Z,38.82
2024-04-30T09:04:34.674Z,38.47
2024-04-30T09:07:02.492Z,38.62
2024-04-30T09:09:30.035Z,38.15
2024-04-30T09:11:58.377Z,37.06
2024-04-30T09:14:25.974Z,36.19
2024-04-30T09:16:53.956Z,35.63
2024-04-30T09:19:25.658Z,37.28
2024-04-30T09:22:02.589Z,36.40
2024-04-30T09:24:30.273Z,35.42
2024-04-30T09:26:58.095Z,36.00
2024-04-30T09:29:35.162Z,34.68
2024-04-30T09:32:03.063Z,33.50
2024-04-30T09:34:40.379Z,33.03
2024-04-30T09:37:18.635Z,33.07
2024-04-30T09:39:50.054Z,32.68
2024-04-30T09:42:17.774Z,33.01
2024-04-30T09:44:45.355Z,33.16
2024-04-30T09:47:14.234Z,32.67
2024-04-30T09:49:42.167Z,33.48
2024-04-30T09:52:09.934Z,32.55
2024-04-30T09:54:37.912Z,32.20
2024-04-30T09:57:06.918Z,30.98
2024-04-30T09:59:34.699Z,30.97
2024-04-30T10:02:04.284Z,30.42
2024-04-30T10:04:31.921Z,30.60
2024-04-30T10:06:59.539Z,30.75
2024-04-30T10:09:27.152Z,30.32
2024-04-30T10:11:54.640Z,30.07
2024-04-30T10:14:29.017Z,29.93
2024-04-30T10:17:00.310Z,30.18
2024-04-30T10:19:29.095Z,29.70
2024-04-30T10:21:56.754Z,29.95
2024-04-30T10:24:24.446Z,29.57
2024-04-30T10:26:52.314Z,29.22
2024-04-30T10:29:20.133Z,29.17
2024-04-30T10:31:48.835Z,29.35
2024-04-30T10:34:17.187Z,28.51
2024-04-30T10:36:48.889Z,28.67
2024-04-30T10:39:28.471Z,28.49
2024-04-30T10:41:56.155Z,28.85
2024-04-30T10:44:23.843Z,28.51
2024-04-30T10:46:51.461Z,28.45
2024-04-30T10:49:21.479Z,27.66
2024-04-30T10:51:50.767Z,28.04
2024-04-30T10:54:18.355Z,28.28
2024-04-30T10:56:46.017Z,27.52
2024-04-30T10:59:13.643Z,27.44
2024-04-30T11:01:41.535Z,27.19
2024-04-30T11:04:10.124Z,26.95
2024-04-30T11:06:38.855Z,27.41
2024-04-30T11:09:07.500Z,27.67
2024-04-30T11:11:47.740Z,27.45
2024-04-30T11:14:15.949Z,27.71
2024-04-30T11:16:47.714Z,27.05
2024-04-30T11:19:15.907Z,26.79
2024-04-30T11:21:44.636Z,26.41
2024-04-30T11:24:12.334Z,26.54
2024-04-30T11:26:39.979Z,27.00
2024-04-30T11:29:22.937Z,27.28
2024-04-30T11:31:55.457Z,27.37
2024-04-30T11:34:23.222Z,27.13
2024-04-30T11:36:51.519Z,26.84
2024-04-30T11:39:19.198Z,26.49
2024-04-30T11:41:52.245Z,26.52
2024-04-30T11:44:28.752Z,26.11
2024-04-30T11:46:56.408Z,26.18
2024-04-30T11:49:24.104Z,26.31
2024-04-30T11:51:51.832Z,26.33
2024-04-30T11:54:19.446Z,25.91
2024-04-30T11:56:47.026Z,26.32
2024-04-30T11:59:14.752Z,26.40
2024-04-30T12:01:42.360Z,26.26
2024-04-30T12:04:09.969Z,25.96
2024-04-30T12:06:38.944Z,25.79
2024-04-30T12:09:07.031Z,25.40
2024-04-30T12:11:40.795Z,25.70
2024-04-30T12:14:08.428Z,25.80
2024-04-30T12:16:36.043Z,25.39
2024-04-30T12:19:04.980Z,25.08
2024-04-30T12:21:32.754Z,24.83
2024-04-30T12:24:00.611Z,23.99
2024-04-30T12:26:28.382Z,24.13
2024-04-30T12:28:55.920Z,24.03
2024-04-30T12:31:23.532Z,23.82
2024-04-30T12:33:51.185Z,23.53
2024-04-30T12:36:18.953Z,23.43
2024-04-30T12:38:46.541Z,23.82
2024-04-30T12:41:14.187Z,23.55
2024-04-30T12:43:41.801Z,23.77
2024-04-30T12:46:09.572Z,23.76
2024-04-30T12:48:37.293Z,23.71
2024-04-30T12:51:05.259Z,23.43
2024-04-30T12:53:33.022Z,23.06
2024-04-30T12:56:03.336Z,23.40
2024-04-30T12:58:31.021Z,22.92
2024-04-30T13:00:58.625Z,22.89
2024-04-30T13:03:26.442Z,22.82
2024-04-30T13:05:54.209Z,22.79
2024-04-30T13:08:22.273Z,22.79
2024-04-30T13:10:50.345Z,22.40
2024-04-30T13:13:18.363Z,22.19
2024-04-30T13:15:46.094Z,23.08
2024-04-30T13:18:13.590Z,22.83
2024-04-30T13:20:41.335Z,23.00
2024-04-30T13:23:08.990Z,22.50
2024-04-30T13:25:38.179Z,22.44
2024-04-30T13:28:06.278Z,22.80
2024-04-30T13:30:34.257Z,22.40
2024-04-30T13:33:03.193Z,21.84
2024-04-30T13:35:30.994Z,21.73
2024-04-30T13:37:58.528Z,21.86
2024-04-30T13:40:26.267Z,21.85
2024-04-30T13:42:53.912Z,21.35
2024-04-30T13:45:21.590Z,21.15
2024-04-30T13:47:49.417Z,21.48
2024-04-30T13:50:17.059Z,21.56
2024-04-30T13:52:44.735Z,21.89
2024-04-30T13:55:12.464Z,21.22
2024-04-30T13:57:41.124Z,21.10
2024-04-30T14:00:11.877Z,20.99
2024-04-30T14:02:42.472Z,21.27
2024-04-30T14:05:10.142Z,21.61
2024-04-30T14:07:37.923Z,21.71
2024-04-30T14:10:05.792Z,21.35
2024-04-30T14:12:33.491Z,21.46
2024-04-30T14:15:01.561Z,21.36
2024-04-30T14:17:29.170Z,20.19
2024-04-30T14:19:56.869Z,20.32
2024-04-30T14:22:24.900Z,20.10
2024-04-30T14:24:52.711Z,19.07
2024-04-30T14:27:20.983Z,18.97
2024-04-30T14:29:48.546Z,18.88
2024-04-30T14:32:16.227Z,19.03
2024-04-30T14:34:43.962Z,18.55
2024-04-30T14:37:11.611Z,18.72
2024-04-30T14:39:39.343Z,18.69
2024-04-30T14:42:07.117Z,18.50
2024-04-30T14:44:36.109Z,18.43
2024-04-30T14:47:03.781Z,18.18
2024-04-30T14:49:31.455Z,17.93
2024-04-30T14:51:59.078Z,17.96
2024-04-30T14:54:26.637Z,17.75
2024-04-30T14:56:55.544Z,17.59
2024-04-30T14:59:23.657Z,17.22
2024-04-30T15:01:51.438Z,17.00
2024-04-30T15:04:19.304Z,16.91
2024-04-30T15:06:47.146Z,16.97
2024-04-30T15:09:15.097Z,16.79
2024-04-30T15:11:42.768Z,16.65
2024-04-30T15:14:10.403Z,16.07
2024-04-30T15:16:43.204Z,16.42
2024-04-30T15:19:11.433Z,16.32
2024-04-30T15:21:42.499Z,16.05
2024-04-30T15:24:10.030Z,15.99
2024-04-30T15:26:38.646Z,16.05
2024-04-30T15:29:06.707Z,16.31
2024-04-30T15:31:34.452Z,16.39
2024-04-30T15:34:02.244Z,15.74
2024-04-30T15:36:29.881Z,15.54
2024-04-30T15:38:57.671Z,15.47
2024-04-30T15:41:25.256Z,15.14
2024-04-30T15:43:53.241Z,14.72
2024-04-30T15:46:20.922Z,14.52
2024-04-30T15:48:50.830Z,14.50
2024-04-30T15:51:19.414Z,14.02
2024-04-30T15:53:47.138Z,13.88
2024-04-30T15:56:19.460Z,14.06
2024-04-30T15:58:48.094Z,14.03
2024-04-30T16:01:16.025Z,13.58
2024-04-30T16:03:44.481Z,13.79
2024-04-30T16:06:12.217Z,13.95
2024-04-30T16:08:39.847Z,14.34
2024-04-30T16:11:10.443Z,14.35
2024-04-30T16:13:41.095Z,14.18
2024-04-30T16:16:16.221Z,14.05
2024-04-30T16:18:47.490Z,13.91
2024-04-30T16:21:16.465Z,13.86
2024-04-30T16:23:44.369Z,13.86
2024-04-30T16:26:12.158Z,13.88
2024-04-30T16:28:43.538Z,13.60
2024-04-30T16:31:14.714Z,13.73
2024-04-30T16:33:42.959Z,13.65
2024-04-30T16:36:16.955Z,13.47
2024-04-30T16:38:45.083Z,13.87
2024-04-30T16:41:16.084Z,13.70
2024-04-30T16:43:43.967Z,14.01
2024-04-30T16:46:11.630Z,14.41
2024-04-30T16:48:39.764Z,14.43
2024-04-30T16:51:11.874Z,14.16
2024-04-30T16:53:39.968Z,14.18
2024-04-30T16:56:07.608Z,14.10
2024-04-30T16:58:35.276Z,14.04
2024-04-30T17:01:03.585Z,13.97
2024-04-30T17:03:31.655Z,14.22
2024-04-30T17:05:59.720Z,14.20
2024-04-30T17:08:28.341Z,14.39
2024-04-30T17:10:56.070Z,14.89
2024-04-30T17:13:24.127Z,15.39
2024-04-30T17:15:51.757Z,15.97
2024-04-30T17:18:20.429Z,16.68
2024-04-30T17:20:47.974Z,17.56
2024-04-30T17:23:18.126Z,18.45
2024-04-30T17:25:45.795Z,18.98
2024-04-30T17:28:17.312Z,19.75
2024-04-30T17:30:45.029Z,20.44
2024-04-30T17:33:13.269Z,21.02
2024-04-30T17:35:40.832Z,21.72
2024-04-30T17:38:09.654Z,22.66
2024-04-30T17:40:37.285Z,23.36
2024-04-30T17:43:07.978Z,23.75
2024-04-30T17:45:35.639Z,23.89
2024-04-30T17:48:03.630Z,24.36
2024-04-30T17:50:31.447Z,25.00
2024-04-30T17:52:59.132Z,25.25
2024-04-30T17:55:26.787Z,25.29
2024-04-30T17:57:54.489Z,25.75
2024-04-30T18:00:23.594Z,26.34
2024-04-30T18:02:52.600Z,26.36
2024-04-30T18:05:20.239Z,26.45
2024-04-30T18:07:47.939Z,26.57
2024-04-30T18:10:18.146Z,27.29
2024-04-30T18:12:48.017Z,27.68
2024-04-30T18:15:16.220Z,28.06
2024-04-30T18:17:43.963Z,28.45
2024-04-30T18:20:11.606Z,28.75
2024-04-30T18:22:41.531Z,29.21
2024-04-30T18:25:09.331Z,29.47
2024-04-30T18:27:36.927Z,29.88
2024-04-30T18:30:05.061Z,30.51
2024-04-30T18:32:32.747Z,30.85
2024-04-30T18:35:01.411Z,31.06
2024-04-30T18:37:29.056Z,31.24
2024-04-30T18:39:56.780Z,31.00
2024-04-30T18:42:24.858Z,30.91
2024-04-30T18:44:52.577Z,31.15
2024-04-30T18:47:20.158Z,31.22
2024-04-30T18:49:47.932Z,31.70
2024-04-30T18:52:15.689Z,32.00
2024-04-30T18:54:43.495Z,31.77
2024-04-30T18:57:11.337Z,32.18
2024-04-30T18:59:38.944Z,32.90
2024-04-30T19:02:06.688Z,33.39
2024-04-30T19:04:34.529Z,33.50
2024-04-30T19:07:02.348Z,33.17
2024-04-30T19:09:29.952Z,33.35
2024-04-30T19:11:59.318Z,33.54
2024-04-30T19:14:40.814Z,33.41
2024-04-30T19:17:08.377Z,33.18
2024-04-30T19:19:36.041Z,33.22
2024-04-30T19:22:03.685Z,33.26
2024-04-30T19:24:31.303Z,33.47
2024-04-30T19:26:58.899Z,33.95
2024-04-30T19:29:30.035Z,34.23
2024-04-30T19:31:57.781Z,34.27
2024-04-30T19:34:25.614Z,34.17
2024-04-30T19:36:54.083Z,34.34
2024-04-30T19:39:21.710Z,34.43
2024-04-30T19:41:49.180Z,34.63
2024-04-30T19:44:16.768Z,34.73
2024-04-30T19:46:44.689Z,34.98
2024-04-30T19:49:12.798Z,35.34
2024-04-30T19:51:40.506Z,35.57
2024-04-30T19:54:08.283Z,35.92
2024-04-30T19:56:35.770Z,35.98
2024-04-30T19:59:03.478Z,36.03
2024-04-30T20:01:31.307Z,36.15
2024-04-30T20:04:00.429Z,36.17
2024-04-30T20:06:28.531Z,36.20
2024-04-30T20:08:57.379Z,36.45
2024-04-30T20:11:30.188Z,36.19
2024-04-30T20:13:57.878Z,36.23
2024-04-30T20:16:26.760Z,36.36
2024-04-30T20:18:54.549Z,36.57
2024-04-30T20:21:22.428Z,36.39
2024-04-30T20:23:50.023Z,36.32
2024-04-30T20:26:17.536Z,36.34
2024-04-30T20:28:45.183Z,36.56
2024-04-30T20:31:12.819Z,36.82
2024-04-30T20:33:40.862Z,36.64
2024-04-30T20:36:18.086Z,36.89
2024-04-30T20:38:46.149Z,36.82
2024-04-30T20:41:14.112Z,36.77
2024-04-30T20:43:42.054Z,36.74
2024-04-30T20:46:09.557Z,36.83
2024-04-30T20:48:37.440Z,37.00
2024-04-30T20:51:05.386Z,37.05
2024-04-30T20:53:32.947Z,37.20
2024-04-30T20:56:00.501Z,37.10
2024-04-30T20:58:28.098Z,37.29
2024-04-30T21:00:55.747Z,37.53
2024-04-30T21:03:23.652Z,37.40
2024-04-30T21:05:51.702Z,37.28
2024-04-30T21:08:23.762Z,37.28
2024-04-30T21:10:51.741Z,37.18
2024-04-30T21:13:19.526Z,37.33
2024-04-30T21:15:47.211Z,37.33
2024-04-30T21:18:15.039Z,37.38
2024-04-30T21:20:42.692Z,37.48
2024-04-30T21:23:10.329Z,37.81
2024-04-30T21:25:37.895Z,38.15
2024-04-30T21:28:05.941Z,38.13
2024-04-30T21:30:33.728Z,38.28
2024-04-30T21:33:03.371Z,38.45
2024-04-30T21:35:31.416Z,38.56
2024-04-30T21:37:58.957Z,38.67
2024-04-30T21:40:26.908Z,38.81
2024-04-30T21:42:54.654Z,38.94
2024-04-30T21:45:22.390Z,39.02
2024-04-30T21:47:50.190Z,39.14
2024-04-30T21:50:17.903Z,39.29
2024-04-30T21:52:45.888Z,39.65
2024-04-30T21:55:13.707Z,39.87
2024-04-30T21:57:41.567Z,39.95
2024-04-30T22:00:13.676Z,40.15
2024-04-30T22:02:41.401Z,40.65
2024-04-30T22:05:09.009Z,40.85
2024-04-30T22:07:36.685Z,41.21
2024-04-30T22:10:04.852Z,41.60
2024-04-30T22:12:32.938Z,41.69
2024-04-30T22:15:00.766Z,41.72
2024-04-30T22:17:28.445Z,42.07
2024-04-30T22:19:56.213Z,42.70
2024-04-30T22:22:24.111Z,42.83
2024-04-30T22:24:51.653Z,42.37
2024-04-30T22:27:19.222Z,42.03
2024-04-30T22:29:48.545Z,41.95
2024-04-30T22:32:17.924Z,42.14
2024-04-30T22:34:45.536Z,42.07
2024-04-30T22:37:13.086Z,42.11
2024-04-30T22:39:40.743Z,42.41
2024-04-30T22:42:08.869Z,42.55
2024-04-30T22:44:36.805Z,43.08
2024-04-30T22:47:04.788Z,42.96
2024-04-30T22:49:32.427Z,42.99
2024-04-30T22:52:00.132Z,42.89
2024-04-30T22:54:27.830Z,42.90
2024-04-30T22:56:55.439Z,43.00
2024-04-30T22:59:23.367Z,42.91
2024-04-30T23:01:51.521Z,43.26
2024-04-30T23:04:19.499Z,43.25
2024-04-30T23:06:47.208Z,43.64
2024-04-30T23:09:15.276Z,44.35
2024-04-30T23:11:43.677Z,43.43
2024-04-30T23:14:11.770Z,43.50
2024-04-30T23:16:39.380Z,43.32
2024-04-30T23:19:07.096Z,43.33
2024-04-30T23:21:38.408Z,43.42
2024-04-30T23:24:06.106Z,43.41
2024-04-30T23:26:33.777Z,43.24
2024-04-30T23:29:01.635Z,43.20
2024-04-30T23:31:29.251Z,43.47
2024-04-30T23:33:56.795Z,43.62
2024-04-30T23:36:25.166Z,43.44
2024-04-30T23:38:52.731Z,43.67
2024-04-30T23:41:20.475Z,43.76
2024-04-30T23:43:48.192Z,43.93
2024-04-30T23:46:15.690Z,43.75
2024-04-30T23:48:43.366Z,44.45
2024-04-30T23:51:14.083Z,44.73
2024-04-30T23:53:42.219Z,44.72
2024-04-30T23:56:10.022Z,44.49
2024-04-30T23:58:38.326Z,44.88
